Aérodrome :
LOGIN :

S'inscrire | Disclaimer

   EN    FR    IT 

 










Légende :    VFR   VFR Marginal   IFR   IFR Intensif   IFR Très Intensif
Visi : 
Plafond : 
>= 8 km
>= 3000ft
5 à 8 km
1000 à 3000 ft
1500m à 5 km
500 à 1000 ft
800 à 1500m
200 à 500 ft
< 800m
< 200 ft
Symboles :   Orages  Brouillard  Fortes neiges  Fortes précipitations  Vent > 20 kt
SIGMETs :   Divers  Orages  Givrage  Turbulence  Onde Orograph.  Cendres Volcan.







- Altitude de l'aérodrome : 768 ft
- Code IATA : MXP


LIMC - Milano Malpensa

DERNIER METAR :
  • 230650Z 08003KT 0800 R35R/1300U R17L/1100U R35L/0900VP1500U -RA FG SCT030 BKN050 08/07 Q1021 RERA NOSIG

METARs EXPIRÉS :
  • 230620Z 07001KT 1000 R35R/1000N R17L/1000U R35L/1400D RA BCFG SCT030 BKN050 08/07 Q1021 NOSIG
  • 230550Z VRB01KT 1100 R35R/0900VP1500D R17L/P1500N R35L/1400D -DZ BCFG BKN030 OVC045 08/07 Q1020 NOSIG
  • 230520Z VRB02KT 2000 R35R/1400D R17L/P1500N R35L/P1500N -DZ BR BKN025 OVC035 08/07 Q1020 NOSIG
  • 230450Z VRB01KT 2500 BR BKN035 OVC045 08/07 Q1020 NOSIG
  • 230420Z VRB02KT 2500 BR BKN042 OVC052 08/07 Q1020 NOSIG

TAF TAF LIMC
Valide du 23 à 06h jusqu'au 24 à 12h UTC


230500Z 2306/2412 VRB05KT 4000 BR SCT025 BKN050
TEMPO 2306/2312 2000 DZ
Pas de NOTAMs connus pour ce terrain.



MET'MAP, la Météo Aéronautique d'un coup d'oeil ! - Copyright ORBIFLY Décembre 2007 - Disclaimer

ORBIFLY MET'MAP TEAM :

Programmation & Développement : Alexandra Zaïnal
Conception & Développement : Baudouin d'Aumeries
Co-Programmation & Développement : Marc-Olivier Méhu
Soutien technique & logistique : Manuel Goepfert

Contact : metmap@orbifly.com




SOURCES & CREDITS :

   NOAA